Finchford, Iowa
Current Conditions -  °F | °C
As of 8:54 PM on Tuesday 25 Nov 2014 (Local Time) from KALO Reporting Station
Broken Clouds Broken Clouds  
Wind Chill:   Ceiling: 7000
Heat Index: 19°   Visibility: 10mi
Dew Point: 15°   Wind: 8mph
Humidity: 85%   Direction: 130°SE
Pressure: 30.07"   Gusts: NA
Location:  42.6537°N, 92.488°W
Report Text: KALO 260254Z 13007KT 10SM BKN070 M07/M09 A3007 RMK AO2 SLP198 T10721094 56007
Loading
Personal Weather Stations






























Interactive Weather Map New forecast layout! Learn more

10-Day Weather Forecast

Advertisements
Track Severe Weather on mobile